Aérodrome :
LOGIN :

S'inscrire | Disclaimer

   EN    FR    IT 

 










Légende :    VFR   VFR Marginal   IFR   IFR Intensif   IFR Très Intensif
Visi : 
Plafond : 
>= 8 km
>= 3000ft
5 à 8 km
1000 à 3000 ft
1500m à 5 km
500 à 1000 ft
800 à 1500m
200 à 500 ft
< 800m
< 200 ft
Symboles :   Orages  Brouillard  Fortes neiges  Fortes précipitations  Vent > 20 kt
SIGMETs :   Divers  Orages  Givrage  Turbulence  Onde Orograph.  Cendres Volcan.






- Altitude de l'aérodrome : 231 ft
- Code IATA : SZE


EGSY - Sheffield City Heliport

DERNIER METAR :
  • 030850Z 29008KT 9999 FEW014 FEW015TCU BKN032 16/13 Q1019

METARs EXPIRÉS :
  • 030820Z 31007KT 280V340 9999 FEW011 FEW015TCU SCT042 16/13 Q1019
  • 030750Z 28008KT 260V320 9999 FEW011 FEW012TCU BKN044 16/13 Q1019 RERA
  • 030720Z 27006KT 230V290 9999 VCSH SCT010 OVC044 15/13 Q1019 RERA

TAF TAF EGSY
Valide du 03 à 09h jusqu'au 03 à 16h UTC


030757Z 0309/0316 28010KT 9999 SCT020
PROB40
TEMPO 0309/0311 BKN014
PROB30
TEMPO 0309/0313 7000 SHRA



MET'MAP, la Météo Aéronautique d'un coup d'oeil ! - Copyright ORBIFLY Décembre 2007 - Disclaimer

ORBIFLY MET'MAP TEAM :

Programmation & Développement : Alexandra Zaïnal
Sur une idée originale de : Baudouin d'Aumeries
Soutien technique & logistique : Manuel Goepfert
Assistance : Marc-Olivier Méhu




SOURCES & CREDITS :

   NOAA